sensor_id;sensor_type;location;lat;lon;timestamp;P1;durP1;ratioP1;P2;durP2;ratioP2
25917;SDS011;13899;51.174;4.456;2023-08-06T00:00:21;3.90;;;2.38;;
25917;SDS011;13899;51.174;4.456;2023-08-06T00:02:48;3.58;;;2.50;;
25917;SDS011;13899;51.174;4.456;2023-08-06T00:05:16;2.65;;;2.08;;
25917;SDS011;13899;51.174;4.456;2023-08-06T00:07:48;2.95;;;2.15;;
25917;SDS011;13899;51.174;4.456;2023-08-06T00:10:14;4.22;;;2.58;;
25917;SDS011;13899;51.174;4.456;2023-08-06T00:12:49;4.75;;;2.50;;
25917;SDS011;13899;51.174;4.456;2023-08-06T00:15:14;4.30;;;2.30;;
25917;SDS011;13899;51.174;4.456;2023-08-06T00:20:07;2.97;;;2.40;;
25917;SDS011;13899;51.174;4.456;2023-08-06T00:22:36;3.55;;;2.22;;
25917;SDS011;13899;51.174;4.456;2023-08-06T00:25:03;3.25;;;2.65;;
25917;SDS011;13899;51.174;4.456;2023-08-06T00:27:31;2.80;;;2.20;;
25917;SDS011;13899;51.174;4.456;2023-08-06T00:29:57;2.95;;;2.17;;
25917;SDS011;13899;51.174;4.456;2023-08-06T00:32:23;3.13;;;2.37;;
25917;SDS011;13899;51.174;4.456;2023-08-06T00:34:49;3.70;;;2.33;;
25917;SDS011;13899;51.174;4.456;2023-08-06T00:37:15;2.43;;;2.23;;
25917;SDS011;13899;51.174;4.456;2023-08-06T00:39:41;2.83;;;2.40;;
25917;SDS011;13899;51.174;4.456;2023-08-06T00:42:08;3.67;;;2.45;;
25917;SDS011;13899;51.174;4.456;2023-08-06T00:44:34;2.92;;;2.22;;
25917;SDS011;13899;51.174;4.456;2023-08-06T00:47:00;4.03;;;2.00;;
25917;SDS011;13899;51.174;4.456;2023-08-06T00:49:26;2.75;;;2.05;;
25917;SDS011;13899;51.174;4.456;2023-08-06T00:51:52;2.60;;;2.30;;
25917;SDS011;13899;51.174;4.456;2023-08-06T00:54:18;2.28;;;1.77;;
25917;SDS011;13899;51.174;4.456;2023-08-06T00:56:44;2.73;;;2.23;;
25917;SDS011;13899;51.174;4.456;2023-08-06T00:59:11;2.67;;;1.67;;
25917;SDS011;13899;51.174;4.456;2023-08-06T01:01:37;2.83;;;2.10;;
25917;SDS011;13899;51.174;4.456;2023-08-06T01:04:03;4.80;;;1.97;;
25917;SDS011;13899;51.174;4.456;2023-08-06T01:09:41;2.25;;;1.70;;
25917;SDS011;13899;51.174;4.456;2023-08-06T01:15:22;3.05;;;1.90;;
25917;SDS011;13899;51.174;4.456;2023-08-06T01:17:54;3.55;;;2.40;;
25917;SDS011;13899;51.174;4.456;2023-08-06T01:20:20;4.63;;;2.58;;
25917;SDS011;13899;51.174;4.456;2023-08-06T01:22:46;2.37;;;2.10;;
25917;SDS011;13899;51.174;4.456;2023-08-06T01:25:12;6.60;;;2.73;;
25917;SDS011;13899;51.174;4.456;2023-08-06T01:30:17;3.58;;;2.00;;
25917;SDS011;13899;51.174;4.456;2023-08-06T01:32:50;3.58;;;2.63;;
25917;SDS011;13899;51.174;4.456;2023-08-06T01:35:19;3.70;;;2.30;;
25917;SDS011;13899;51.174;4.456;2023-08-06T01:37:46;2.85;;;2.13;;
25917;SDS011;13899;51.174;4.456;2023-08-06T01:40:13;4.38;;;2.20;;
25917;SDS011;13899;51.174;4.456;2023-08-06T01:42:39;4.43;;;2.30;;
25917;SDS011;13899;51.174;4.456;2023-08-06T01:45:05;2.23;;;2.00;;
25917;SDS011;13899;51.174;4.456;2023-08-06T01:47:32;3.15;;;2.33;;
25917;SDS011;13899;51.174;4.456;2023-08-06T01:49:58;5.00;;;2.67;;
25917;SDS011;13899;51.174;4.456;2023-08-06T01:52:23;5.17;;;2.53;;
25917;SDS011;13899;51.174;4.456;2023-08-06T01:54:49;6.03;;;3.10;;
25917;SDS011;13899;51.174;4.456;2023-08-06T01:57:15;5.85;;;2.95;;
25917;SDS011;13899;51.174;4.456;2023-08-06T01:59:41;5.68;;;3.65;;
25917;SDS011;13899;51.174;4.456;2023-08-06T02:02:06;5.63;;;3.43;;
25917;SDS011;13899;51.174;4.456;2023-08-06T02:04:32;5.63;;;3.20;;
25917;SDS011;13899;51.174;4.456;2023-08-06T02:06:57;7.30;;;3.37;;
25917;SDS011;13899;51.174;4.456;2023-08-06T02:09:23;4.75;;;2.90;;
25917;SDS011;13899;51.174;4.456;2023-08-06T02:11:49;4.77;;;3.30;;
25917;SDS011;13899;51.174;4.456;2023-08-06T02:14:14;6.32;;;3.40;;
25917;SDS011;13899;51.174;4.456;2023-08-06T02:16:40;3.92;;;3.13;;
25917;SDS011;13899;51.174;4.456;2023-08-06T02:19:05;6.00;;;4.07;;
25917;SDS011;13899;51.174;4.456;2023-08-06T02:21:31;4.57;;;3.22;;
25917;SDS011;13899;51.174;4.456;2023-08-06T02:23:58;5.17;;;3.70;;
25917;SDS011;13899;51.174;4.456;2023-08-06T02:26:23;6.93;;;3.75;;
25917;SDS011;13899;51.174;4.456;2023-08-06T02:28:49;4.82;;;4.13;;
25917;SDS011;13899;51.174;4.456;2023-08-06T02:31:15;7.72;;;3.90;;
25917;SDS011;13899;51.174;4.456;2023-08-06T02:33:40;5.13;;;4.20;;
25917;SDS011;13899;51.174;4.456;2023-08-06T02:36:06;6.90;;;5.33;;
25917;SDS011;13899;51.174;4.456;2023-08-06T02:38:32;7.38;;;4.28;;
25917;SDS011;13899;51.174;4.456;2023-08-06T02:40:58;7.22;;;4.57;;
25917;SDS011;13899;51.174;4.456;2023-08-06T02:43:23;7.53;;;5.50;;
25917;SDS011;13899;51.174;4.456;2023-08-06T02:45:49;9.33;;;5.80;;
25917;SDS011;13899;51.174;4.456;2023-08-06T02:48:15;9.00;;;5.43;;
25917;SDS011;13899;51.174;4.456;2023-08-06T02:50:43;8.57;;;5.38;;
25917;SDS011;13899;51.174;4.456;2023-08-06T02:53:09;8.20;;;5.93;;
25917;SDS011;13899;51.174;4.456;2023-08-06T02:55:35;10.67;;;6.83;;
25917;SDS011;13899;51.174;4.456;2023-08-06T02:58:01;8.17;;;5.90;;
25917;SDS011;13899;51.174;4.456;2023-08-06T03:00:27;9.17;;;6.00;;
25917;SDS011;13899;51.174;4.456;2023-08-06T03:02:53;9.03;;;6.50;;
25917;SDS011;13899;51.174;4.456;2023-08-06T03:05:18;8.75;;;6.57;;
25917;SDS011;13899;51.174;4.456;2023-08-06T03:07:44;8.63;;;6.13;;
25917;SDS011;13899;51.174;4.456;2023-08-06T03:10:10;8.80;;;6.83;;
25917;SDS011;13899;51.174;4.456;2023-08-06T03:12:35;11.77;;;6.83;;
25917;SDS011;13899;51.174;4.456;2023-08-06T03:15:01;10.50;;;6.83;;
25917;SDS011;13899;51.174;4.456;2023-08-06T03:17:27;12.85;;;8.50;;
25917;SDS011;13899;51.174;4.456;2023-08-06T03:19:52;11.30;;;8.63;;
25917;SDS011;13899;51.174;4.456;2023-08-06T03:22:18;13.97;;;9.37;;
25917;SDS011;13899;51.174;4.456;2023-08-06T03:24:44;11.77;;;7.80;;
25917;SDS011;13899;51.174;4.456;2023-08-06T03:27:09;9.95;;;8.00;;
25917;SDS011;13899;51.174;4.456;2023-08-06T03:29:35;13.10;;;7.80;;
25917;SDS011;13899;51.174;4.456;2023-08-06T03:32:00;8.80;;;6.25;;
25917;SDS011;13899;51.174;4.456;2023-08-06T03:34:26;9.40;;;5.70;;
25917;SDS011;13899;51.174;4.456;2023-08-06T03:36:52;9.63;;;4.77;;
25917;SDS011;13899;51.174;4.456;2023-08-06T03:39:17;6.35;;;4.55;;
25917;SDS011;13899;51.174;4.456;2023-08-06T03:41:43;5.00;;;2.60;;
25917;SDS011;13899;51.174;4.456;2023-08-06T03:44:08;2.47;;;1.60;;
25917;SDS011;13899;51.174;4.456;2023-08-06T03:46:34;1.60;;;1.40;;
25917;SDS011;13899;51.174;4.456;2023-08-06T03:49:00;1.05;;;0.70;;
25917;SDS011;13899;51.174;4.456;2023-08-06T03:51:26;2.50;;;0.80;;
25917;SDS011;13899;51.174;4.456;2023-08-06T03:53:51;0.93;;;0.67;;
25917;SDS011;13899;51.174;4.456;2023-08-06T03:56:17;0.60;;;0.60;;
25917;SDS011;13899;51.174;4.456;2023-08-06T03:58:43;2.33;;;0.70;;
25917;SDS011;13899;51.174;4.456;2023-08-06T04:01:08;1.08;;;0.70;;
25917;SDS011;13899;51.174;4.456;2023-08-06T04:03:34;0.80;;;0.70;;
25917;SDS011;13899;51.174;4.456;2023-08-06T04:05:59;2.92;;;0.80;;
25917;SDS011;13899;51.174;4.456;2023-08-06T04:08:29;1.27;;;0.88;;
25917;SDS011;13899;51.174;4.456;2023-08-06T04:10:55;0.80;;;0.80;;
25917;SDS011;13899;51.174;4.456;2023-08-06T04:13:20;1.73;;;0.87;;
25917;SDS011;13899;51.174;4.456;2023-08-06T04:15:46;1.92;;;0.63;;
25917;SDS011;13899;51.174;4.456;2023-08-06T04:18:12;2.17;;;1.23;;
25917;SDS011;13899;51.174;4.456;2023-08-06T04:20:47;2.22;;;1.48;;
25917;SDS011;13899;51.174;4.456;2023-08-06T04:23:14;3.30;;;1.57;;
25917;SDS011;13899;51.174;4.456;2023-08-06T04:25:40;1.63;;;1.50;;
25917;SDS011;13899;51.174;4.456;2023-08-06T04:28:06;4.47;;;4.07;;
25917;SDS011;13899;51.174;4.456;2023-08-06T04:30:32;5.10;;;4.65;;
25917;SDS011;13899;51.174;4.456;2023-08-06T04:32:58;7.80;;;7.10;;
25917;SDS011;13899;51.174;4.456;2023-08-06T04:35:24;10.90;;;9.80;;
25917;SDS011;13899;51.174;4.456;2023-08-06T04:37:49;13.02;;;11.70;;
25917;SDS011;13899;51.174;4.456;2023-08-06T04:40:15;12.00;;;10.80;;
25917;SDS011;13899;51.174;4.456;2023-08-06T04:42:41;17.95;;;10.90;;
25917;SDS011;13899;51.174;4.456;2023-08-06T04:45:06;12.63;;;10.45;;
25917;SDS011;13899;51.174;4.456;2023-08-06T04:47:32;13.83;;;12.13;;
25917;SDS011;13899;51.174;4.456;2023-08-06T04:49:58;20.65;;;13.75;;
25917;SDS011;13899;51.174;4.456;2023-08-06T04:52:24;15.68;;;14.02;;
25917;SDS011;13899;51.174;4.456;2023-08-06T04:54:52;19.80;;;15.43;;
25917;SDS011;13899;51.174;4.456;2023-08-06T04:57:18;15.98;;;14.30;;
25917;SDS011;13899;51.174;4.456;2023-08-06T04:59:45;16.40;;;11.75;;
25917;SDS011;13899;51.174;4.456;2023-08-06T05:02:10;15.47;;;8.80;;
25917;SDS011;13899;51.174;4.456;2023-08-06T05:04:36;9.10;;;6.25;;
25917;SDS011;13899;51.174;4.456;2023-08-06T05:07:02;9.80;;;5.57;;
25917;SDS011;13899;51.174;4.456;2023-08-06T05:09:30;11.38;;;6.07;;
25917;SDS011;13899;51.174;4.456;2023-08-06T05:11:56;10.93;;;6.20;;
25917;SDS011;13899;51.174;4.456;2023-08-06T05:14:21;7.40;;;5.25;;
25917;SDS011;13899;51.174;4.456;2023-08-06T05:16:48;9.45;;;5.22;;
25917;SDS011;13899;51.174;4.456;2023-08-06T05:21:39;11.10;;;5.37;;
25917;SDS011;13899;51.174;4.456;2023-08-06T05:24:05;9.50;;;4.53;;
25917;SDS011;13899;51.174;4.456;2023-08-06T05:26:31;7.47;;;3.90;;
25917;SDS011;13899;51.174;4.456;2023-08-06T05:28:56;9.70;;;3.70;;
25917;SDS011;13899;51.174;4.456;2023-08-06T05:31:22;7.93;;;3.55;;
25917;SDS011;13899;51.174;4.456;2023-08-06T05:33:47;10.37;;;3.53;;
25917;SDS011;13899;51.174;4.456;2023-08-06T05:36:13;8.85;;;3.67;;
25917;SDS011;13899;51.174;4.456;2023-08-06T05:38:39;11.07;;;3.07;;
25917;SDS011;13899;51.174;4.456;2023-08-06T05:41:04;8.27;;;2.90;;
25917;SDS011;13899;51.174;4.456;2023-08-06T05:43:30;6.88;;;2.85;;
25917;SDS011;13899;51.174;4.456;2023-08-06T05:45:56;8.32;;;3.35;;
25917;SDS011;13899;51.174;4.456;2023-08-06T05:48:21;7.22;;;3.28;;
25917;SDS011;13899;51.174;4.456;2023-08-06T05:50:49;6.28;;;3.35;;
25917;SDS011;13899;51.174;4.456;2023-08-06T05:53:16;8.90;;;3.35;;
25917;SDS011;13899;51.174;4.456;2023-08-06T05:55:42;5.00;;;2.40;;
25917;SDS011;13899;51.174;4.456;2023-08-06T05:58:08;4.30;;;2.97;;
25917;SDS011;13899;51.174;4.456;2023-08-06T06:00:34;6.47;;;2.93;;
25917;SDS011;13899;51.174;4.456;2023-08-06T06:03:00;11.73;;;3.55;;
25917;SDS011;13899;51.174;4.456;2023-08-06T06:05:25;9.02;;;3.60;;
25917;SDS011;13899;51.174;4.456;2023-08-06T06:07:51;9.73;;;3.50;;
25917;SDS011;13899;51.174;4.456;2023-08-06T06:10:17;6.20;;;3.10;;
25917;SDS011;13899;51.174;4.456;2023-08-06T06:12:42;9.27;;;2.85;;
25917;SDS011;13899;51.174;4.456;2023-08-06T06:15:08;12.23;;;3.50;;
25917;SDS011;13899;51.174;4.456;2023-08-06T06:17:34;8.70;;;3.80;;
25917;SDS011;13899;51.174;4.456;2023-08-06T06:20:00;9.57;;;3.03;;
25917;SDS011;13899;51.174;4.456;2023-08-06T06:22:26;9.02;;;3.33;;
25917;SDS011;13899;51.174;4.456;2023-08-06T06:24:51;9.32;;;2.30;;
25917;SDS011;13899;51.174;4.456;2023-08-06T06:27:17;7.65;;;2.78;;
25917;SDS011;13899;51.174;4.456;2023-08-06T06:29:42;5.90;;;2.67;;
25917;SDS011;13899;51.174;4.456;2023-08-06T06:32:08;6.95;;;2.83;;
25917;SDS011;13899;51.174;4.456;2023-08-06T06:34:34;7.93;;;2.70;;
25917;SDS011;13899;51.174;4.456;2023-08-06T06:37:00;8.80;;;3.05;;
25917;SDS011;13899;51.174;4.456;2023-08-06T06:39:26;5.07;;;3.27;;
25917;SDS011;13899;51.174;4.456;2023-08-06T06:41:51;6.87;;;2.97;;
25917;SDS011;13899;51.174;4.456;2023-08-06T06:44:17;8.07;;;2.47;;
25917;SDS011;13899;51.174;4.456;2023-08-06T06:46:45;7.70;;;3.08;;
25917;SDS011;13899;51.174;4.456;2023-08-06T06:49:10;6.50;;;3.13;;
25917;SDS011;13899;51.174;4.456;2023-08-06T06:51:36;5.28;;;2.58;;
25917;SDS011;13899;51.174;4.456;2023-08-06T06:54:02;5.30;;;2.80;;
25917;SDS011;13899;51.174;4.456;2023-08-06T06:56:27;6.40;;;3.83;;
25917;SDS011;13899;51.174;4.456;2023-08-06T06:58:53;10.10;;;3.92;;
25917;SDS011;13899;51.174;4.456;2023-08-06T07:01:19;10.93;;;2.43;;
25917;SDS011;13899;51.174;4.456;2023-08-06T07:03:44;8.80;;;2.42;;
25917;SDS011;13899;51.174;4.456;2023-08-06T07:06:10;7.68;;;2.45;;
25917;SDS011;13899;51.174;4.456;2023-08-06T07:11:05;13.33;;;3.70;;
25917;SDS011;13899;51.174;4.456;2023-08-06T07:13:31;5.47;;;1.60;;
25917;SDS011;13899;51.174;4.456;2023-08-06T07:15:58;7.13;;;1.63;;
25917;SDS011;13899;51.174;4.456;2023-08-06T07:18:24;5.38;;;1.33;;
25917;SDS011;13899;51.174;4.456;2023-08-06T07:20:50;4.90;;;1.77;;
25917;SDS011;13899;51.174;4.456;2023-08-06T07:23:17;8.93;;;1.98;;
25917;SDS011;13899;51.174;4.456;2023-08-06T07:25:45;4.75;;;1.13;;
25917;SDS011;13899;51.174;4.456;2023-08-06T07:28:12;4.85;;;0.90;;
25917;SDS011;13899;51.174;4.456;2023-08-06T07:30:39;6.50;;;1.50;;
25917;SDS011;13899;51.174;4.456;2023-08-06T07:35:31;6.60;;;1.50;;
25917;SDS011;13899;51.174;4.456;2023-08-06T07:37:57;5.43;;;1.80;;
25917;SDS011;13899;51.174;4.456;2023-08-06T07:40:23;20.33;;;2.03;;
25917;SDS011;13899;51.174;4.456;2023-08-06T07:42:49;5.13;;;1.30;;
25917;SDS011;13899;51.174;4.456;2023-08-06T07:45:14;8.10;;;1.03;;
25917;SDS011;13899;51.174;4.456;2023-08-06T07:47:40;8.67;;;2.10;;
25917;SDS011;13899;51.174;4.456;2023-08-06T07:50:06;9.00;;;1.57;;
25917;SDS011;13899;51.174;4.456;2023-08-06T07:52:32;10.60;;;2.03;;
25917;SDS011;13899;51.174;4.456;2023-08-06T07:54:58;11.05;;;1.45;;
25917;SDS011;13899;51.174;4.456;2023-08-06T07:57:23;8.35;;;1.38;;
25917;SDS011;13899;51.174;4.456;2023-08-06T07:59:49;6.10;;;1.23;;
25917;SDS011;13899;51.174;4.456;2023-08-06T08:02:15;10.20;;;2.28;;
25917;SDS011;13899;51.174;4.456;2023-08-06T08:04:41;4.30;;;1.08;;
25917;SDS011;13899;51.174;4.456;2023-08-06T08:07:09;6.83;;;1.47;;
25917;SDS011;13899;51.174;4.456;2023-08-06T08:09:35;5.22;;;1.10;;
25917;SDS011;13899;51.174;4.456;2023-08-06T08:12:01;5.25;;;1.15;;
25917;SDS011;13899;51.174;4.456;2023-08-06T08:14:27;6.30;;;1.00;;
25917;SDS011;13899;51.174;4.456;2023-08-06T08:16:54;4.70;;;0.97;;
25917;SDS011;13899;51.174;4.456;2023-08-06T08:19:19;3.00;;;0.85;;
25917;SDS011;13899;51.174;4.456;2023-08-06T08:21:46;4.47;;;0.85;;
25917;SDS011;13899;51.174;4.456;2023-08-06T08:24:11;7.05;;;1.08;;
25917;SDS011;13899;51.174;4.456;2023-08-06T08:26:37;7.63;;;1.45;;
25917;SDS011;13899;51.174;4.456;2023-08-06T08:29:03;3.17;;;0.90;;
25917;SDS011;13899;51.174;4.456;2023-08-06T08:31:28;7.18;;;1.73;;
25917;SDS011;13899;51.174;4.456;2023-08-06T08:33:54;5.63;;;1.47;;
25917;SDS011;13899;51.174;4.456;2023-08-06T08:36:20;5.00;;;1.20;;
25917;SDS011;13899;51.174;4.456;2023-08-06T08:38:46;8.00;;;1.47;;
25917;SDS011;13899;51.174;4.456;2023-08-06T08:41:12;7.07;;;1.73;;
25917;SDS011;13899;51.174;4.456;2023-08-06T08:43:37;3.63;;;1.17;;
25917;SDS011;13899;51.174;4.456;2023-08-06T08:48:30;6.37;;;1.93;;
25917;SDS011;13899;51.174;4.456;2023-08-06T08:50:56;5.53;;;1.23;;
25917;SDS011;13899;51.174;4.456;2023-08-06T08:53:22;8.10;;;1.87;;
25917;SDS011;13899;51.174;4.456;2023-08-06T08:55:48;9.15;;;1.73;;
25917;SDS011;13899;51.174;4.456;2023-08-06T08:58:15;6.70;;;2.25;;
25917;SDS011;13899;51.174;4.456;2023-08-06T09:00:50;8.43;;;2.33;;
25917;SDS011;13899;51.174;4.456;2023-08-06T09:03:16;9.93;;;1.75;;
25917;SDS011;13899;51.174;4.456;2023-08-06T09:05:46;8.20;;;1.25;;
25917;SDS011;13899;51.174;4.456;2023-08-06T09:08:17;7.68;;;1.20;;
25917;SDS011;13899;51.174;4.456;2023-08-06T09:10:47;7.93;;;1.40;;
25917;SDS011;13899;51.174;4.456;2023-08-06T09:13:14;5.82;;;1.20;;
25917;SDS011;13899;51.174;4.456;2023-08-06T09:15:41;8.82;;;1.38;;
25917;SDS011;13899;51.174;4.456;2023-08-06T09:18:09;15.77;;;1.70;;
25917;SDS011;13899;51.174;4.456;2023-08-06T09:20:38;6.25;;;1.00;;
25917;SDS011;13899;51.174;4.456;2023-08-06T09:23:08;6.50;;;1.00;;
25917;SDS011;13899;51.174;4.456;2023-08-06T09:25:36;3.83;;;1.08;;
25917;SDS011;13899;51.174;4.456;2023-08-06T09:28:03;2.50;;;0.90;;
25917;SDS011;13899;51.174;4.456;2023-08-06T09:30:29;4.07;;;0.70;;
25917;SDS011;13899;51.174;4.456;2023-08-06T09:32:56;3.53;;;0.70;;
25917;SDS011;13899;51.174;4.456;2023-08-06T09:35:22;3.83;;;1.23;;
25917;SDS011;13899;51.174;4.456;2023-08-06T09:37:48;4.72;;;1.38;;
25917;SDS011;13899;51.174;4.456;2023-08-06T09:40:30;1.80;;;0.60;;
25917;SDS011;13899;51.174;4.456;2023-08-06T09:42:57;3.75;;;0.80;;
25917;SDS011;13899;51.174;4.456;2023-08-06T09:48:05;4.25;;;0.85;;
25917;SDS011;13899;51.174;4.456;2023-08-06T09:50:33;4.50;;;1.23;;
25917;SDS011;13899;51.174;4.456;2023-08-06T09:53:02;3.92;;;1.00;;
25917;SDS011;13899;51.174;4.456;2023-08-06T09:55:29;3.97;;;0.70;;
25917;SDS011;13899;51.174;4.456;2023-08-06T09:57:55;6.10;;;1.25;;
25917;SDS011;13899;51.174;4.456;2023-08-06T10:00:21;5.72;;;0.93;;
25917;SDS011;13899;51.174;4.456;2023-08-06T10:02:48;4.43;;;1.27;;
25917;SDS011;13899;51.174;4.456;2023-08-06T10:05:15;4.45;;;0.88;;
25917;SDS011;13899;51.174;4.456;2023-08-06T10:07:42;5.82;;;1.30;;
25917;SDS011;13899;51.174;4.456;2023-08-06T10:10:09;8.80;;;1.00;;
25917;SDS011;13899;51.174;4.456;2023-08-06T10:12:43;4.63;;;0.85;;
25917;SDS011;13899;51.174;4.456;2023-08-06T10:15:14;5.68;;;1.13;;
25917;SDS011;13899;51.174;4.456;2023-08-06T10:17:42;5.63;;;1.00;;
25917;SDS011;13899;51.174;4.456;2023-08-06T10:20:10;4.28;;;1.20;;
25917;SDS011;13899;51.174;4.456;2023-08-06T10:22:37;9.27;;;1.30;;
25917;SDS011;13899;51.174;4.456;2023-08-06T10:25:09;5.00;;;1.00;;
25917;SDS011;13899;51.174;4.456;2023-08-06T10:27:39;6.82;;;1.10;;
25917;SDS011;13899;51.174;4.456;2023-08-06T10:32:50;5.68;;;1.40;;
25917;SDS011;13899;51.174;4.456;2023-08-06T10:38:17;8.63;;;1.92;;
25917;SDS011;13899;51.174;4.456;2023-08-06T10:40:52;6.72;;;0.90;;
25917;SDS011;13899;51.174;4.456;2023-08-06T10:43:34;4.60;;;1.00;;
25917;SDS011;13899;51.174;4.456;2023-08-06T10:46:10;4.40;;;0.73;;
25917;SDS011;13899;51.174;4.456;2023-08-06T10:48:45;2.33;;;0.60;;
25917;SDS011;13899;51.174;4.456;2023-08-06T10:51:12;2.22;;;0.63;;
25917;SDS011;13899;51.174;4.456;2023-08-06T10:53:42;2.92;;;0.73;;
25917;SDS011;13899;51.174;4.456;2023-08-06T10:56:13;4.65;;;0.63;;
25917;SDS011;13899;51.174;4.456;2023-08-06T10:58:42;7.53;;;1.58;;
25917;SDS011;13899;51.174;4.456;2023-08-06T11:01:10;4.07;;;0.90;;
25917;SDS011;13899;51.174;4.456;2023-08-06T11:03:36;3.42;;;0.80;;
25917;SDS011;13899;51.174;4.456;2023-08-06T11:06:03;3.72;;;1.27;;
25917;SDS011;13899;51.174;4.456;2023-08-06T11:08:33;4.15;;;0.70;;
25917;SDS011;13899;51.174;4.456;2023-08-06T11:11:09;5.13;;;0.75;;
25917;SDS011;13899;51.174;4.456;2023-08-06T11:13:38;3.08;;;0.60;;
25917;SDS011;13899;51.174;4.456;2023-08-06T11:16:04;3.40;;;0.70;;
25917;SDS011;13899;51.174;4.456;2023-08-06T11:18:31;2.13;;;0.75;;
25917;SDS011;13899;51.174;4.456;2023-08-06T11:21:01;3.38;;;0.82;;
25917;SDS011;13899;51.174;4.456;2023-08-06T11:23:27;2.88;;;0.73;;
25917;SDS011;13899;51.174;4.456;2023-08-06T11:25:56;3.13;;;0.80;;
25917;SDS011;13899;51.174;4.456;2023-08-06T11:28:22;3.42;;;0.77;;
25917;SDS011;13899;51.174;4.456;2023-08-06T11:30:52;4.32;;;0.90;;
25917;SDS011;13899;51.174;4.456;2023-08-06T11:33:21;4.93;;;0.95;;
25917;SDS011;13899;51.174;4.456;2023-08-06T11:35:48;9.93;;;1.25;;
25917;SDS011;13899;51.174;4.456;2023-08-06T11:38:14;8.15;;;1.30;;
25917;SDS011;13899;51.174;4.456;2023-08-06T11:40:41;4.00;;;1.05;;
25917;SDS011;13899;51.174;4.456;2023-08-06T11:43:12;3.88;;;1.02;;
25917;SDS011;13899;51.174;4.456;2023-08-06T11:45:39;5.53;;;1.02;;
25917;SDS011;13899;51.174;4.456;2023-08-06T11:48:05;7.35;;;1.38;;
25917;SDS011;13899;51.174;4.456;2023-08-06T11:50:36;7.07;;;1.20;;
25917;SDS011;13899;51.174;4.456;2023-08-06T11:53:05;4.88;;;0.88;;
25917;SDS011;13899;51.174;4.456;2023-08-06T11:55:31;4.45;;;1.08;;
25917;SDS011;13899;51.174;4.456;2023-08-06T11:57:57;8.07;;;1.88;;
25917;SDS011;13899;51.174;4.456;2023-08-06T12:00:29;5.97;;;1.50;;
25917;SDS011;13899;51.174;4.456;2023-08-06T12:02:55;9.32;;;1.25;;
25917;SDS011;13899;51.174;4.456;2023-08-06T12:05:22;6.10;;;1.30;;
25917;SDS011;13899;51.174;4.456;2023-08-06T12:07:54;7.95;;;1.63;;
25917;SDS011;13899;51.174;4.456;2023-08-06T12:10:22;6.68;;;1.45;;
25917;SDS011;13899;51.174;4.456;2023-08-06T12:12:49;6.68;;;1.60;;
25917;SDS011;13899;51.174;4.456;2023-08-06T12:15:15;5.90;;;1.27;;
25917;SDS011;13899;51.174;4.456;2023-08-06T12:17:41;6.95;;;1.48;;
25917;SDS011;13899;51.174;4.456;2023-08-06T12:20:07;9.52;;;1.60;;
25917;SDS011;13899;51.174;4.456;2023-08-06T12:22:34;8.50;;;1.90;;
25917;SDS011;13899;51.174;4.456;2023-08-06T12:25:04;9.43;;;1.83;;
25917;SDS011;13899;51.174;4.456;2023-08-06T12:27:36;6.50;;;1.58;;
25917;SDS011;13899;51.174;4.456;2023-08-06T12:30:06;7.05;;;1.35;;
25917;SDS011;13899;51.174;4.456;2023-08-06T12:32:33;7.93;;;1.70;;
25917;SDS011;13899;51.174;4.456;2023-08-06T12:34:59;5.68;;;1.35;;
25917;SDS011;13899;51.174;4.456;2023-08-06T12:39:51;7.20;;;1.50;;
25917;SDS011;13899;51.174;4.456;2023-08-06T12:42:18;5.45;;;1.77;;
25917;SDS011;13899;51.174;4.456;2023-08-06T12:44:44;7.05;;;1.42;;
25917;SDS011;13899;51.174;4.456;2023-08-06T12:47:10;5.90;;;1.40;;
25917;SDS011;13899;51.174;4.456;2023-08-06T12:49:36;5.03;;;1.25;;
25917;SDS011;13899;51.174;4.456;2023-08-06T12:52:01;8.88;;;1.50;;
25917;SDS011;13899;51.174;4.456;2023-08-06T12:54:29;8.45;;;1.98;;
25917;SDS011;13899;51.174;4.456;2023-08-06T12:57:01;3.90;;;1.23;;
25917;SDS011;13899;51.174;4.456;2023-08-06T12:59:27;4.55;;;1.13;;
25917;SDS011;13899;51.174;4.456;2023-08-06T13:01:53;4.23;;;0.80;;
25917;SDS011;13899;51.174;4.456;2023-08-06T13:04:19;4.47;;;0.90;;
25917;SDS011;13899;51.174;4.456;2023-08-06T13:06:44;2.88;;;0.93;;
25917;SDS011;13899;51.174;4.456;2023-08-06T13:09:10;4.77;;;1.00;;
25917;SDS011;13899;51.174;4.456;2023-08-06T13:11:36;2.53;;;0.90;;
25917;SDS011;13899;51.174;4.456;2023-08-06T13:14:09;3.67;;;1.05;;
25917;SDS011;13899;51.174;4.456;2023-08-06T13:16:36;3.70;;;0.80;;
25917;SDS011;13899;51.174;4.456;2023-08-06T13:19:05;2.50;;;0.88;;
25917;SDS011;13899;51.174;4.456;2023-08-06T13:21:35;6.10;;;1.42;;
25917;SDS011;13899;51.174;4.456;2023-08-06T13:24:20;6.03;;;1.27;;
25917;SDS011;13899;51.174;4.456;2023-08-06T13:26:46;2.85;;;0.90;;
25917;SDS011;13899;51.174;4.456;2023-08-06T13:29:12;3.83;;;0.83;;
25917;SDS011;13899;51.174;4.456;2023-08-06T13:31:38;2.95;;;1.00;;
25917;SDS011;13899;51.174;4.456;2023-08-06T13:34:03;3.42;;;0.73;;
25917;SDS011;13899;51.174;4.456;2023-08-06T13:36:29;3.05;;;0.80;;
25917;SDS011;13899;51.174;4.456;2023-08-06T13:38:56;3.15;;;1.27;;
25917;SDS011;13899;51.174;4.456;2023-08-06T13:41:22;3.47;;;1.05;;
25917;SDS011;13899;51.174;4.456;2023-08-06T13:43:48;5.60;;;0.98;;
25917;SDS011;13899;51.174;4.456;2023-08-06T13:46:14;7.32;;;1.58;;
25917;SDS011;13899;51.174;4.456;2023-08-06T13:48:43;6.53;;;1.10;;
25917;SDS011;13899;51.174;4.456;2023-08-06T13:51:11;5.63;;;1.42;;
25917;SDS011;13899;51.174;4.456;2023-08-06T13:53:37;4.68;;;1.00;;
25917;SDS011;13899;51.174;4.456;2023-08-06T13:56:06;5.40;;;1.20;;
25917;SDS011;13899;51.174;4.456;2023-08-06T13:58:37;8.07;;;1.55;;
25917;SDS011;13899;51.174;4.456;2023-08-06T14:01:03;4.20;;;1.02;;
25917;SDS011;13899;51.174;4.456;2023-08-06T14:03:29;5.63;;;1.10;;
25917;SDS011;13899;51.174;4.456;2023-08-06T14:05:55;5.18;;;1.27;;
25917;SDS011;13899;51.174;4.456;2023-08-06T14:08:22;4.80;;;1.30;;
25917;SDS011;13899;51.174;4.456;2023-08-06T14:10:51;5.53;;;1.10;;
25917;SDS011;13899;51.174;4.456;2023-08-06T14:13:17;4.70;;;1.38;;
25917;SDS011;13899;51.174;4.456;2023-08-06T14:15:43;5.75;;;1.20;;
25917;SDS011;13899;51.174;4.456;2023-08-06T14:18:11;6.57;;;1.25;;
25917;SDS011;13899;51.174;4.456;2023-08-06T14:20:38;6.03;;;1.30;;
25917;SDS011;13899;51.174;4.456;2023-08-06T14:23:04;8.77;;;1.60;;
25917;SDS011;13899;51.174;4.456;2023-08-06T14:25:30;7.95;;;1.83;;
25917;SDS011;13899;51.174;4.456;2023-08-06T14:27:55;7.80;;;1.90;;
25917;SDS011;13899;51.174;4.456;2023-08-06T14:30:21;4.80;;;1.47;;
25917;SDS011;13899;51.174;4.456;2023-08-06T14:32:47;4.78;;;1.50;;
25917;SDS011;13899;51.174;4.456;2023-08-06T14:35:12;5.85;;;1.75;;
25917;SDS011;13899;51.174;4.456;2023-08-06T14:37:39;5.25;;;1.10;;
25917;SDS011;13899;51.174;4.456;2023-08-06T14:40:06;14.20;;;2.08;;
25917;SDS011;13899;51.174;4.456;2023-08-06T14:42:32;5.28;;;1.02;;
25917;SDS011;13899;51.174;4.456;2023-08-06T14:44:58;6.38;;;1.50;;
25917;SDS011;13899;51.174;4.456;2023-08-06T14:47:24;8.82;;;1.15;;
25917;SDS011;13899;51.174;4.456;2023-08-06T14:49:50;5.63;;;1.40;;
25917;SDS011;13899;51.174;4.456;2023-08-06T14:52:16;6.93;;;1.57;;
25917;SDS011;13899;51.174;4.456;2023-08-06T14:54:42;3.50;;;0.90;;
25917;SDS011;13899;51.174;4.456;2023-08-06T14:57:08;5.07;;;1.10;;
25917;SDS011;13899;51.174;4.456;2023-08-06T15:02:00;6.07;;;1.27;;
25917;SDS011;13899;51.174;4.456;2023-08-06T15:04:26;6.75;;;1.23;;
25917;SDS011;13899;51.174;4.456;2023-08-06T15:06:51;4.18;;;1.10;;
25917;SDS011;13899;51.174;4.456;2023-08-06T15:09:17;5.82;;;1.35;;
25917;SDS011;13899;51.174;4.456;2023-08-06T15:11:43;6.57;;;1.08;;
25917;SDS011;13899;51.174;4.456;2023-08-06T15:14:09;6.03;;;1.40;;
25917;SDS011;13899;51.174;4.456;2023-08-06T15:16:34;8.83;;;1.67;;